Amanda, OH

3:41 AM EST on January 27, 2015 (GMT -0500)
APRSWXNET Amanda OH US | Change Station
CLOSE
Current Station
Personal Weather Station
Location: Amanda, OH
Elevation: 1079 ft
Nearby Weather Stations

Elev 1079 ft 39.62 °N, 82.77 °W | Updated 41 minutes ago

Overcast
Overcast
10 °F
Feels Like 10 °F
N
0
Wind Variable Wind from North
Gusts 0.0 mph

Today
High -- | Low -- °F
--% Chance of Precip.
Yesterday
High -- | Low -- °F
Precip. -- in
7:43 AM 5:44 PM
First Quarter, 52% visible
Pressure 29.97 in
Visibility 5.0 miles
Clouds Few 8500 ft
Windchill 10 °F
Dew Point 7 °F
Humidity 88%
Rainfall 0.00 in
Snow Depth Not available.
UV 0.0 out of 12
Pollen .10 out of 12
Air Quality Not available.
Flu Activity Not available.
METAR KLHQ 270753Z AUTO 36003KT 5SM BR FEW085 M13/M14 A2993 RMK AO2 SLP148 T11281144

More Conditions Fewer Conditions

Pressure 29.97 in
Visibility 5.0 miles
Clouds Few 8500 ft
Windchill 10 °F
Dew Point 7 °F
Humidity 88%
Rainfall 0.00 in
Snow Depth Not available.
UV 0.0 out of 12
Pollen .10 out of 12
Air Quality Not available.
Flu Activity Not available.
METAR KLHQ 270753Z AUTO 36003KT 5SM BR FEW085 M13/M14 A2993 RMK AO2 SLP148 T11281144

More Conditions Fewer Conditions

10-Day Weather Forecast

Almanac

Astronomy

Jan. 27, 2015 Rise Set
Actual Time
Civil Twilight
Nautical Twilight
Astronomical Twilight
Moon
Length of Visible Light
Length of Day
Tomorrow will be .
, % of the Moon is Illuminated

Today's Extremes

State Highs State Lows

Community

WunderPhotos

Upload Photos

1,790,555 photos uploaded!

WunderBlogs® & News

Nearby

Air Quality

  Air Quality AQ Index Pollutant
Not available.

Snow Depth

Station Depth Elevation

Earthquake Activity

City Distance Mag. Time & Date
Minimum magnitude displayed is 2.5.

Coastal Water Temperatures

Place Temperature

Nearby Weather Stations